Time;durP1;ratioP1;P1;durP2;ratioP2;P2;SDS_P1;SDS_P2;PMS_P1;PMS_P2;Temp;Humidity;BMP_temperature;BMP_pressure;BME280_temperature;BME280_humidity;BME280_pressure;Samples;Min_cycle;Max_cycle;Signal;HPM_P1;HPM_P2
2023/05/18 00:00:05;;;;;;;;;;;;;;;12.22;100.00;98562.81;5077012;28;19920;-72
2023/05/18 00:02:31;;;;;;;;;;;;;;;12.82;96.77;98563.13;5078651;28;19984;-72
2023/05/18 00:05:00;;;;;;;;;;;;;;;13.21;92.37;98549.38;5079562;28;19955;-73
2023/05/18 00:07:28;;;;;;;;;;;;;;;13.47;89.57;98553.72;5081802;28;19947;-73
2023/05/18 00:09:55;;;;;;;;;;;;;;;13.64;87.48;98558.84;5080091;28;19924;-72
2023/05/18 00:12:21;;;;;;;;;;;;;;;13.82;85.36;98564.50;5078300;28;19984;-72
2023/05/18 00:14:49;;;;;;;;;;;;;;;13.82;84.86;98561.84;5078917;28;20117;-72
2023/05/18 00:17:15;;;;;;;;;;;;;;;13.75;84.44;98561.28;5080681;28;20306;-71
2023/05/18 00:19:45;;;;;;;;;;;;;;;13.81;84.69;98556.72;5080438;28;20062;-72
2023/05/18 00:22:17;;;;;;;;;;;;;;;13.87;84.22;98551.09;5076317;28;19921;-72
2023/05/18 00:24:44;;;;;;;;;;;;;;;13.86;83.59;98554.88;5077521;28;19924;-72
2023/05/18 00:27:10;;;;;;;;;;;;;;;13.93;83.24;98552.69;5079687;28;19925;-72
2023/05/18 00:29:36;;;;;;;;;;;;;;;13.97;82.75;98561.03;5073355;28;19989;-72
2023/05/18 00:32:04;;;;;;;;;;;;;;;13.98;82.49;98555.41;5084505;28;19989;-72
2023/05/18 00:34:31;;;;;;;;;;;;;;;13.94;82.92;98557.00;5077098;28;19992;-72
2023/05/18 00:36:57;;;;;;;;;;;;;;;13.84;83.49;98554.31;5079469;28;19951;-73
2023/05/18 00:39:24;;;;;;;;;;;;;;;13.83;83.51;98552.69;5080853;28;19927;-72
2023/05/18 00:41:50;;;;;;;;;;;;;;;13.76;84.43;98554.03;5079016;28;19925;-71
2023/05/18 00:44:17;;;;;;;;;;;;;;;13.64;84.27;98556.19;5077550;28;19920;-71
2023/05/18 00:46:43;;;;;;;;;;;;;;;13.64;84.98;98565.03;5077676;28;19980;-72
2023/05/18 00:49:11;;;;;;;;;;;;;;;13.59;85.86;98556.97;5080667;28;19988;-72
2023/05/18 00:51:38;;;;;;;;;;;;;;;13.41;87.25;98557.47;5079536;28;19964;-72
2023/05/18 00:54:06;;;;;;;;;;;;;;;13.05;89.66;98556.53;5076222;28;19992;-72
2023/05/18 00:56:33;;;;;;;;;;;;;;;12.85;91.87;98562.63;5077015;28;20306;-72
2023/05/18 00:59:01;;;;;;;;;;;;;;;13.12;91.36;98557.13;5075461;28;20182;-72
2023/05/18 01:01:28;;;;;;;;;;;;;;;13.22;89.64;98559.84;5074634;28;19921;-72
2023/05/18 01:03:55;;;;;;;;;;;;;;;12.76;91.63;98566.88;5078520;28;19932;-72
2023/05/18 01:06:25;;;;;;;;;;;;;;;12.94;92.18;98553.00;5076751;28;19921;-72
2023/05/18 01:08:52;;;;;;;;;;;;;;;12.94;92.73;98554.88;5077879;28;19928;-72
2023/05/18 01:11:21;;;;;;;;;;;;;;;13.01;91.78;98550.09;5080017;28;19925;-72
2023/05/18 01:13:54;;;;;;;;;;;;;;;12.64;93.37;98555.56;5079116;28;19925;-72
2023/05/18 01:16:25;;;;;;;;;;;;;;;12.48;95.40;98561.06;5076341;28;19925;-72
2023/05/18 01:18:57;;;;;;;;;;;;;;;12.16;97.63;98555.81;5078043;28;19951;-72
2023/05/18 01:21:32;;;;;;;;;;;;;;;12.56;98.07;98556.06;5080457;28;20300;-72
2023/05/18 01:24:14;;;;;;;;;;;;;;;12.91;94.67;98555.41;5078299;28;19924;-72
2023/05/18 01:26:44;;;;;;;;;;;;;;;13.15;91.89;98553.13;5076936;28;19943;-72
2023/05/18 01:29:12;;;;;;;;;;;;;;;13.24;90.78;98560.41;5068627;28;19929;-72
2023/05/18 01:31:39;;;;;;;;;;;;;;;13.34;89.59;98559.59;5076441;28;19920;-72
2023/05/18 01:34:05;;;;;;;;;;;;;;;13.39;88.81;98573.03;5076971;28;20023;-72
2023/05/18 01:36:32;;;;;;;;;;;;;;;13.43;88.46;98558.03;5076901;28;19924;-72
2023/05/18 01:39:00;;;;;;;;;;;;;;;13.17;90.14;98564.38;5078941;28;19932;-72
2023/05/18 01:41:27;;;;;;;;;;;;;;;12.40;93.98;98562.38;5079879;28;19971;-72
2023/05/18 01:43:59;;;;;;;;;;;;;;;12.33;97.09;98562.59;5078488;28;19981;-72
2023/05/18 01:46:32;;;;;;;;;;;;;;;12.25;98.13;98562.28;5076950;28;19993;-72
2023/05/18 01:49:00;;;;;;;;;;;;;;;12.45;96.75;98551.69;5078837;28;19929;-72
2023/05/18 01:51:30;;;;;;;;;;;;;;;12.81;95.07;98558.84;5080232;28;20352;-72
2023/05/18 01:53:59;;;;;;;;;;;;;;;12.94;93.18;98549.50;5078417;28;19920;-72
2023/05/18 01:56:26;;;;;;;;;;;;;;;13.06;91.30;98557.34;5076777;28;19925;-72
2023/05/18 01:58:53;;;;;;;;;;;;;;;13.21;90.39;98557.44;5075611;28;19988;-73
2023/05/18 02:01:21;;;;;;;;;;;;;;;13.30;89.11;98553.16;5073693;28;20081;-72
2023/05/18 02:03:48;;;;;;;;;;;;;;;13.31;88.47;98552.06;5079401;28;19925;-71
2023/05/18 02:06:14;;;;;;;;;;;;;;;13.35;88.07;98553.16;5076088;28;19925;-71
2023/05/18 02:08:40;;;;;;;;;;;;;;;13.39;87.69;98556.94;5074865;28;19960;-72
2023/05/18 02:11:07;;;;;;;;;;;;;;;13.40;87.40;98553.19;5078076;28;20389;-72
2023/05/18 02:13:33;;;;;;;;;;;;;;;13.41;87.09;98546.75;5079638;28;19924;-72
2023/05/18 02:15:59;;;;;;;;;;;;;;;13.42;86.84;98556.41;5075692;28;19935;-72
2023/05/18 02:18:27;;;;;;;;;;;;;;;13.41;86.77;98560.16;5076108;28;19980;-72
2023/05/18 02:20:57;;;;;;;;;;;;;;;13.40;86.59;98547.84;5077582;28;19932;-72
2023/05/18 02:23:24;;;;;;;;;;;;;;;13.28;87.13;98550.72;5079440;28;19942;-72
2023/05/18 02:25:50;;;;;;;;;;;;;;;13.33;86.87;98547.28;5078273;28;19924;-72
2023/05/18 02:28:17;;;;;;;;;;;;;;;13.30;87.04;98547.78;5076816;28;19925;-72
2023/05/18 02:30:43;;;;;;;;;;;;;;;13.30;86.93;98543.25;5072043;28;19925;-72
2023/05/18 02:33:10;;;;;;;;;;;;;;;13.24;87.13;98551.53;5083477;28;19929;-73
2023/05/18 02:35:37;;;;;;;;;;;;;;;13.19;87.40;98546.13;5081965;28;19955;-72
2023/05/18 02:38:04;;;;;;;;;;;;;;;13.07;87.77;98542.84;5080022;28;19965;-72
2023/05/18 02:40:30;;;;;;;;;;;;;;;12.83;89.90;98542.50;5079451;28;19928;-72
2023/05/18 02:42:56;;;;;;;;;;;;;;;12.58;92.01;98540.53;5081148;28;19925;-72
2023/05/18 02:45:23;;;;;;;;;;;;;;;12.54;93.19;98539.41;5082744;28;20334;-71
2023/05/18 02:47:49;;;;;;;;;;;;;;;12.32;93.84;98541.44;5081628;28;19968;-71
2023/05/18 02:50:16;;;;;;;;;;;;;;;12.34;95.32;98542.00;5079358;28;19925;-71
2023/05/18 02:52:44;;;;;;;;;;;;;;;12.37;94.16;98539.59;5079540;28;19976;-71
2023/05/18 02:55:13;;;;;;;;;;;;;;;12.45;93.65;98538.28;5079094;28;21544;-71
2023/05/18 02:57:42;;;;;;;;;;;;;;;12.19;93.87;98533.88;5079511;28;19937;-71
2023/05/18 03:00:10;;;;;;;;;;;;;;;11.82;97.92;98526.63;5071058;28;20470;-71
2023/05/18 03:02:37;;;;;;;;;;;;;;;11.61;99.33;98532.03;5079460;28;20023;-71
2023/05/18 03:05:04;;;;;;;;;;;;;;;11.31;100.00;98535.22;5082280;28;19924;-72
2023/05/18 03:07:31;;;;;;;;;;;;;;;11.78;100.00;98524.72;5083086;28;19925;-72
2023/05/18 03:09:59;;;;;;;;;;;;;;;11.85;100.00;98530.69;5080644;28;20365;-72
2023/05/18 03:12:25;;;;;;;;;;;;;;;11.50;100.00;98525.78;5079676;28;19947;-72
2023/05/18 03:14:52;;;;;;;;;;;;;;;11.08;100.00;98540.88;5080731;28;19976;-72
2023/05/18 03:17:18;;;;;;;;;;;;;;;11.54;100.00;98529.59;5082960;28;20535;-72
2023/05/18 03:19:44;;;;;;;;;;;;;;;11.83;100.00;98532.78;5082598;28;20010;-72
2023/05/18 03:22:11;;;;;;;;;;;;;;;12.14;98.19;98533.81;5077960;28;19952;-72
2023/05/18 03:24:39;;;;;;;;;;;;;;;12.20;96.67;98527.44;5079286;28;19920;-72
2023/05/18 03:27:07;;;;;;;;;;;;;;;12.43;94.28;98532.41;5082400;28;19924;-72
2023/05/18 03:29:34;;;;;;;;;;;;;;;12.58;92.80;98537.84;5074538;28;19960;-72
2023/05/18 03:32:00;;;;;;;;;;;;;;;12.65;91.96;98533.06;5079175;28;19934;-72
2023/05/18 03:34:26;;;;;;;;;;;;;;;12.75;90.88;98538.44;5077920;28;19984;-72
2023/05/18 03:36:53;;;;;;;;;;;;;;;12.79;90.45;98539.53;5080654;28;20011;-72
2023/05/18 03:39:20;;;;;;;;;;;;;;;12.85;89.81;98538.50;5082178;28;20465;-72
2023/05/18 03:41:46;;;;;;;;;;;;;;;12.88;89.26;98537.97;5081863;28;19925;-72
2023/05/18 03:44:14;;;;;;;;;;;;;;;12.89;88.98;98544.97;5077746;28;19924;-72
2023/05/18 03:46:41;;;;;;;;;;;;;;;12.91;88.68;98545.50;5077761;28;19960;-72
2023/05/18 03:49:07;;;;;;;;;;;;;;;12.49;89.80;98539.41;5082036;28;19924;-71
2023/05/18 03:51:33;;;;;;;;;;;;;;;12.39;91.84;98542.81;5080878;28;20299;-71
2023/05/18 03:54:00;;;;;;;;;;;;;;;12.37;93.50;98544.16;5078623;28;19975;-71
2023/05/18 03:56:29;;;;;;;;;;;;;;;12.35;93.77;98544.41;5078780;28;19925;-72
2023/05/18 03:58:57;;;;;;;;;;;;;;;12.31;93.99;98548.69;5078656;28;19925;-71
2023/05/18 04:01:25;;;;;;;;;;;;;;;12.28;94.29;98545.72;5075791;28;19920;-71
2023/05/18 04:03:55;;;;;;;;;;;;;;;12.26;94.87;98542.47;5080655;28;19987;-71
2023/05/18 04:06:22;;;;;;;;;;;;;;;12.04;96.12;98553.28;5078619;28;19931;-71
2023/05/18 04:08:49;;;;;;;;;;;;;;;11.59;98.24;98550.22;5077913;28;19991;-71
2023/05/18 04:11:15;;;;;;;;;;;;;;;11.19;100.00;98558.63;5081772;28;19963;-72
2023/05/18 04:13:42;;;;;;;;;;;;;;;10.73;100.00;98555.44;5081830;28;19926;-72
2023/05/18 04:16:12;;;;;;;;;;;;;;;10.44;100.00;98563.81;5077368;28;19955;-72
2023/05/18 04:18:40;;;;;;;;;;;;;;;10.16;100.00;98559.41;5078239;28;20492;-71
2023/05/18 04:21:06;;;;;;;;;;;;;;;10.11;100.00;98565.47;5081301;28;19925;-71
2023/05/18 04:23:37;;;;;;;;;;;;;;;9.86;100.00;98553.59;5079953;28;19935;-71
2023/05/18 04:26:04;;;;;;;;;;;;;;;9.74;100.00;98567.81;5078069;28;19925;-72
2023/05/18 04:28:30;;;;;;;;;;;;;;;9.74;100.00;98562.47;5077424;28;20304;-71
2023/05/18 04:30:57;;;;;;;;;;;;;;;9.80;100.00;98565.22;5086370;28;19948;-71
2023/05/18 04:33:24;;;;;;;;;;;;;;;10.05;100.00;98557.63;5081129;28;19925;-72
2023/05/18 04:35:53;;;;;;;;;;;;;;;10.09;100.00;98569.41;5078639;28;19929;-71
2023/05/18 04:38:22;;;;;;;;;;;;;;;10.48;100.00;98562.28;5077519;28;19935;-71
2023/05/18 04:40:48;;;;;;;;;;;;;;;10.30;100.00;98566.06;5077941;28;19925;-71
2023/05/18 04:43:16;;;;;;;;;;;;;;;10.33;100.00;98565.56;5080628;28;19967;-71
2023/05/18 04:45:44;;;;;;;;;;;;;;;10.80;100.00;98564.03;5080788;28;19924;-71
2023/05/18 04:48:11;;;;;;;;;;;;;;;11.08;100.00;98575.63;5075881;28;20363;-72
2023/05/18 04:50:37;;;;;;;;;;;;;;;11.10;100.00;98570.81;5076826;28;20003;-72
2023/05/18 04:53:06;;;;;;;;;;;;;;;11.28;100.00;98573.16;5079622;28;20000;-72
2023/05/18 04:55:33;;;;;;;;;;;;;;;11.15;100.00;98569.00;5081075;28;19935;-72
2023/05/18 04:58:00;;;;;;;;;;;;;;;11.05;100.00;98573.44;5077242;28;19928;-71
2023/05/18 05:00:28;;;;;;;;;;;;;;;11.16;100.00;98580.53;5069320;28;19968;-71
2023/05/18 05:02:54;;;;;;;;;;;;;;;11.19;100.00;98575.50;5078822;28;20015;-71
2023/05/18 05:05:20;;;;;;;;;;;;;;;11.58;100.00;98573.47;5080581;28;19924;-71
2023/05/18 05:07:49;;;;;;;;;;;;;;;11.30;100.00;98577.19;5078625;28;19970;-71
2023/05/18 05:10:17;;;;;;;;;;;;;;;10.93;100.00;98581.56;5077129;28;19956;-72
2023/05/18 05:12:43;;;;;;;;;;;;;;;10.92;100.00;98582.66;5076132;28;19997;-72
2023/05/18 05:15:10;;;;;;;;;;;;;;;10.48;100.00;98581.78;5079637;28;19967;-70
2023/05/18 05:17:36;;;;;;;;;;;;;;;10.31;100.00;98581.00;5079475;28;19942;-70
2023/05/18 05:20:03;;;;;;;;;;;;;;;10.10;100.00;98574.53;5076781;28;19952;-71
2023/05/18 05:22:29;;;;;;;;;;;;;;;10.58;100.00;98584.63;5075039;28;19952;-71
2023/05/18 05:24:55;;;;;;;;;;;;;;;10.85;100.00;98579.34;5078118;28;19972;-71
2023/05/18 05:27:25;;;;;;;;;;;;;;;10.71;100.00;98572.75;5079987;28;20308;-72
2023/05/18 05:29:51;;;;;;;;;;;;;;;11.02;100.00;98580.06;5069248;28;19928;-72
2023/05/18 05:32:17;;;;;;;;;;;;;;;10.82;100.00;98590.53;5076340;28;19921;-72
2023/05/18 05:34:45;;;;;;;;;;;;;;;11.29;100.00;98580.94;5076302;28;19974;-72
2023/05/18 05:37:12;;;;;;;;;;;;;;;11.67;100.00;98579.97;5079849;28;19972;-72
2023/05/18 05:39:38;;;;;;;;;;;;;;;11.73;100.00;98575.50;5077660;28;19956;-73
2023/05/18 05:42:06;;;;;;;;;;;;;;;11.69;100.00;98577.88;5074758;28;19925;-73
2023/05/18 05:44:33;;;;;;;;;;;;;;;11.89;100.00;98580.75;5075358;28;19979;-72
2023/05/18 05:47:00;;;;;;;;;;;;;;;12.41;98.79;98570.16;5078367;28;19933;-71
2023/05/18 05:49:26;;;;;;;;;;;;;;;12.39;98.07;98571.47;5079309;28;19924;-71
2023/05/18 05:51:52;;;;;;;;;;;;;;;12.40;100.00;98581.13;5078155;28;19935;-71
2023/05/18 05:54:19;;;;;;;;;;;;;;;12.56;99.09;98582.03;5075957;28;19988;-71
2023/05/18 05:56:45;;;;;;;;;;;;;;;12.57;97.03;98581.78;5076250;28;19925;-71
2023/05/18 05:59:11;;;;;;;;;;;;;;;12.70;95.62;98575.94;5075400;28;19929;-71
2023/05/18 06:01:39;;;;;;;;;;;;;;;12.50;95.63;98575.84;5075399;28;19980;-72
2023/05/18 06:04:09;;;;;;;;;;;;;;;12.37;96.89;98578.97;5078508;28;19975;-71
2023/05/18 06:06:36;;;;;;;;;;;;;;;12.75;95.39;98573.28;5080240;28;19985;-71
2023/05/18 06:09:03;;;;;;;;;;;;;;;12.89;93.07;98577.13;5082782;28;19974;-71
2023/05/18 06:11:30;;;;;;;;;;;;;;;12.93;93.06;98583.59;5082142;28;19951;-71
2023/05/18 06:13:56;;;;;;;;;;;;;;;13.24;92.00;98575.69;5081460;28;19980;-71
2023/05/18 06:16:23;;;;;;;;;;;;;;;13.39;90.64;98583.75;5080445;28;20400;-72
2023/05/18 06:18:51;;;;;;;;;;;;;;;13.35;90.11;98577.31;5079965;28;19952;-72
2023/05/18 06:21:17;;;;;;;;;;;;;;;13.45;90.03;98580.03;5083844;28;19925;-72
2023/05/18 06:23:44;;;;;;;;;;;;;;;13.25;91.56;98588.00;5083631;28;19980;-72
2023/05/18 06:26:10;;;;;;;;;;;;;;;13.28;92.36;98588.28;5079036;28;19925;-72
2023/05/18 06:28:36;;;;;;;;;;;;;;;13.56;90.68;98589.69;5080142;28;20574;-72
2023/05/18 06:31:03;;;;;;;;;;;;;;;13.70;90.00;98590.81;5074585;28;19974;-72
2023/05/18 06:33:29;;;;;;;;;;;;;;;13.73;90.13;98579.53;5084043;28;19951;-71
2023/05/18 06:35:57;;;;;;;;;;;;;;;13.85;89.83;98582.78;5080603;28;19977;-71
2023/05/18 06:38:23;;;;;;;;;;;;;;;13.75;89.53;98585.44;5080054;28;20015;-71
2023/05/18 06:40:50;;;;;;;;;;;;;;;14.03;88.93;98592.97;5081320;28;19932;-72
2023/05/18 06:43:16;;;;;;;;;;;;;;;14.02;88.59;98580.63;5083483;28;19924;-72
2023/05/18 06:45:42;;;;;;;;;;;;;;;14.00;88.42;98587.34;5083586;28;19982;-72
2023/05/18 06:48:09;;;;;;;;;;;;;;;14.11;85.69;98572.03;5080299;28;20354;-71
2023/05/18 06:50:35;;;;;;;;;;;;;;;14.16;86.16;98574.72;5080054;28;19925;-72
2023/05/18 06:53:03;;;;;;;;;;;;;;;14.21;85.50;98580.06;5083111;28;19924;-72
2023/05/18 06:55:29;;;;;;;;;;;;;;;14.48;83.16;98577.94;5083475;28;19936;-72
2023/05/18 06:57:57;;;;;;;;;;;;;;;14.56;80.09;98588.94;5081468;28;19946;-72
2023/05/18 07:00:23;;;;;;;;;;;;;;;14.43;77.82;98576.06;5072283;28;19924;-72
2023/05/18 07:02:49;;;;;;;;;;;;;;;14.51;79.26;98580.09;5080311;28;19925;-72
2023/05/18 07:05:16;;;;;;;;;;;;;;;14.42;77.74;98581.72;5082993;28;19947;-72
2023/05/18 07:07:42;;;;;;;;;;;;;;;14.04;77.39;98591.91;5082902;28;19924;-72
2023/05/18 07:10:10;;;;;;;;;;;;;;;13.92;79.99;98588.69;5079084;28;19993;-72
2023/05/18 07:12:37;;;;;;;;;;;;;;;13.87;81.52;98591.34;5079683;28;19925;-72
2023/05/18 07:15:03;;;;;;;;;;;;;;;13.90;78.10;98593.50;5081684;28;19928;-72
2023/05/18 07:17:30;;;;;;;;;;;;;;;13.87;79.04;98586.00;5083266;28;19925;-72
2023/05/18 07:19:56;;;;;;;;;;;;;;;14.09;77.82;98591.09;5081514;28;19924;-72
2023/05/18 07:22:23;;;;;;;;;;;;;;;14.33;74.91;98580.63;5078516;28;19925;-73
2023/05/18 07:24:49;;;;;;;;;;;;;;;14.05;76.63;98582.78;5080358;28;19932;-72
2023/05/18 07:27:17;;;;;;;;;;;;;;;14.14;75.93;98584.94;5082632;28;19925;-72
2023/05/18 07:29:43;;;;;;;;;;;;;;;14.22;73.84;98573.63;5074201;28;19963;-72
2023/05/18 07:32:09;;;;;;;;;;;;;;;14.19;74.05;98582.22;5079287;28;19931;-72
2023/05/18 07:34:36;;;;;;;;;;;;;;;14.20;75.05;98578.47;5079074;28;19925;-72
2023/05/18 07:37:03;;;;;;;;;;;;;;;14.35;73.38;98565.88;5081843;28;19964;-72
2023/05/18 07:39:30;;;;;;;;;;;;;;;14.29;72.89;98563.44;5082115;28;19924;-72
2023/05/18 07:41:56;;;;;;;;;;;;;;;14.13;73.94;98575.25;5080708;28;19985;-72
2023/05/18 07:44:24;;;;;;;;;;;;;;;14.07;74.91;98575.25;5081083;28;20031;-72
2023/05/18 07:46:51;;;;;;;;;;;;;;;14.08;73.86;98565.31;5081339;28;19924;-71
2023/05/18 07:49:18;;;;;;;;;;;;;;;14.23;73.65;98564.50;5078410;28;19925;-72
2023/05/18 07:51:44;;;;;;;;;;;;;;;14.21;73.29;98563.94;5078839;28;20005;-73
2023/05/18 07:54:11;;;;;;;;;;;;;;;14.51;72.51;98558.59;5082102;28;19924;-73
2023/05/18 07:56:38;;;;;;;;;;;;;;;14.51;70.93;98558.59;5082234;28;19921;-73
2023/05/18 07:59:04;;;;;;;;;;;;;;;14.22;68.13;98560.19;5075923;28;19924;-72
2023/05/18 08:01:32;;;;;;;;;;;;;;;14.12;69.16;98568.25;5076762;28;19955;-72
2023/05/18 08:03:58;;;;;;;;;;;;;;;14.21;69.46;98561.28;5080146;28;19956;-72
2023/05/18 08:06:24;;;;;;;;;;;;;;;14.28;70.09;98575.25;5078505;28;19924;-72
2023/05/18 08:08:51;;;;;;;;;;;;;;;14.43;66.88;98564.50;5078571;28;19931;-72
2023/05/18 08:11:17;;;;;;;;;;;;;;;14.39;65.31;98571.50;5082172;28;19924;-72
2023/05/18 08:13:44;;;;;;;;;;;;;;;14.51;64.05;98572.03;5081640;28;19921;-72
2023/05/18 08:16:10;;;;;;;;;;;;;;;14.49;63.93;98563.41;5078429;28;19971;-72
2023/05/18 08:18:38;;;;;;;;;;;;;;;14.54;62.97;98566.09;5078443;28;19921;-72
2023/05/18 08:21:06;;;;;;;;;;;;;;;14.64;62.58;98567.97;5081289;28;19958;-72
2023/05/18 08:23:33;;;;;;;;;;;;;;;14.49;60.27;98568.78;5080475;28;19995;-72
2023/05/18 08:26:00;;;;;;;;;;;;;;;14.28;59.49;98551.88;5078563;28;19940;-71
2023/05/18 08:28:26;;;;;;;;;;;;;;;14.36;59.51;98555.94;5078098;28;19932;-72
2023/05/18 08:30:53;;;;;;;;;;;;;;;14.39;59.94;98544.63;5071025;28;19933;-71
2023/05/18 08:33:19;;;;;;;;;;;;;;;14.45;60.35;98559.69;5081670;28;19932;-71
2023/05/18 08:35:47;;;;;;;;;;;;;;;14.56;59.95;98547.81;5079358;28;19954;-71
2023/05/18 08:38:13;;;;;;;;;;;;;;;14.61;59.75;98560.44;5077471;28;19971;-72
2023/05/18 08:40:42;;;;;;;;;;;;;;;14.59;59.37;98555.31;5077205;28;19931;-72
2023/05/18 08:43:12;;;;;;;;;;;;;;;14.73;59.42;98566.31;5077328;28;19947;-72
2023/05/18 08:45:41;;;;;;;;;;;;;;;14.80;59.67;98551.50;5077079;28;19949;-71
2023/05/18 08:48:07;;;;;;;;;;;;;;;14.84;59.56;98557.13;5080622;28;19920;-71
2023/05/18 08:50:34;;;;;;;;;;;;;;;14.82;58.95;98557.44;5081153;28;19952;-72
2023/05/18 08:53:04;;;;;;;;;;;;;;;14.76;58.67;98558.50;5078566;28;20266;-73
2023/05/18 08:55:33;;;;;;;;;;;;;;;14.87;58.96;98551.19;5077654;28;19952;-72
2023/05/18 08:58:01;;;;;;;;;;;;;;;15.10;59.88;98534.44;5079720;28;19925;-73
2023/05/18 09:00:28;;;;;;;;;;;;;;;15.08;57.85;98556.22;5073005;28;19999;-72
2023/05/18 09:02:54;;;;;;;;;;;;;;;14.97;57.84;98551.97;5078920;28;19925;-72
2023/05/18 09:05:22;;;;;;;;;;;;;;;14.95;57.09;98546.06;5080636;28;19930;-72
2023/05/18 09:07:49;;;;;;;;;;;;;;;14.89;57.66;98539.09;5079968;28;20027;-72
2023/05/18 09:10:17;;;;;;;;;;;;;;;14.99;57.30;98536.38;5077197;28;19951;-72
2023/05/18 09:12:46;;;;;;;;;;;;;;;14.89;55.59;98547.16;5077247;28;19963;-72
2023/05/18 09:15:13;;;;;;;;;;;;;;;14.98;55.85;98526.66;5080520;28;19956;-72
2023/05/18 09:17:40;;;;;;;;;;;;;;;15.10;56.44;98539.81;5080156;28;19924;-72
2023/05/18 09:20:07;;;;;;;;;;;;;;;15.30;56.23;98533.50;5077074;28;19925;-72
2023/05/18 09:22:34;;;;;;;;;;;;;;;15.39;57.19;98537.22;5075654;28;19940;-72
2023/05/18 09:25:01;;;;;;;;;;;;;;;15.33;57.21;98539.16;5078839;28;19931;-72
2023/05/18 09:27:29;;;;;;;;;;;;;;;15.25;56.66;98542.44;5078980;28;20022;-72
2023/05/18 09:29:55;;;;;;;;;;;;;;;15.29;55.70;98546.16;5068764;28;19970;-72
2023/05/18 09:32:22;;;;;;;;;;;;;;;15.49;55.45;98537.19;5076607;28;19921;-72
2023/05/18 09:34:49;;;;;;;;;;;;;;;15.46;55.70;98537.72;5075628;28;19960;-72
2023/05/18 09:37:16;;;;;;;;;;;;;;;15.53;55.73;98528.28;5079045;28;19924;-72
2023/05/18 09:39:42;;;;;;;;;;;;;;;15.51;56.47;98535.03;5078144;28;20011;-72
2023/05/18 09:42:09;;;;;;;;;;;;;;;15.34;57.87;98534.56;5074679;28;19963;-73
2023/05/18 09:44:37;;;;;;;;;;;;;;;15.41;58.56;98529.69;5074568;28;19933;-73
2023/05/18 09:47:07;;;;;;;;;;;;;;;15.43;58.09;98517.56;5078838;28;20441;-72
2023/05/18 09:49:33;;;;;;;;;;;;;;;15.45;58.30;98518.06;5077957;28;19967;-72
2023/05/18 09:52:00;;;;;;;;;;;;;;;15.47;56.95;98525.88;5077433;28;20422;-72
2023/05/18 09:54:26;;;;;;;;;;;;;;;15.49;57.65;98526.44;5074496;28;19924;-71
2023/05/18 09:56:52;;;;;;;;;;;;;;;15.69;59.83;98520.88;5077162;28;20035;-71
2023/05/18 09:59:19;;;;;;;;;;;;;;;15.68;58.95;98524.69;5074557;28;19984;-72
2023/05/18 10:01:59;;;;;;;;;;;;;;;15.75;59.06;98519.78;5075749;28;19931;-71
2023/05/18 10:04:34;;;;;;;;;;;;;;;15.84;59.17;98525.38;5075842;28;20385;-71
2023/05/18 10:07:02;;;;;;;;;;;;;;;15.79;59.80;98517.31;5076841;28;19960;-71
2023/05/18 10:09:28;;;;;;;;;;;;;;;15.83;59.73;98516.47;5079555;28;19952;-72
2023/05/18 10:11:54;;;;;;;;;;;;;;;15.81;59.32;98509.78;5077882;28;19928;-72
2023/05/18 10:14:23;;;;;;;;;;;;;;;15.90;59.02;98514.28;5075852;28;20035;-72
2023/05/18 10:16:51;;;;;;;;;;;;;;;16.04;60.40;98511.72;5076687;28;19971;-72
2023/05/18 10:19:19;;;;;;;;;;;;;;;16.14;60.42;98508.94;5079239;28;19988;-72
2023/05/18 10:21:46;;;;;;;;;;;;;;;16.25;60.30;98501.56;5078732;28;19925;-72
2023/05/18 10:24:16;;;;;;;;;;;;;;;16.24;61.01;98508.03;5076581;28;19928;-70
2023/05/18 10:26:43;;;;;;;;;;;;;;;16.17;60.70;98513.75;5077337;28;19932;-71
2023/05/18 10:29:10;;;;;;;;;;;;;;;16.26;60.04;98509.34;5075363;28;19925;-71
2023/05/18 10:31:37;;;;;;;;;;;;;;;16.12;60.58;98505.72;5076120;28;20000;-73
2023/05/18 10:34:04;;;;;;;;;;;;;;;15.95;61.30;98503.44;5077434;28;19991;-73
2023/05/18 10:36:34;;;;;;;;;;;;;;;15.86;61.28;98507.84;5076988;28;19925;-72
2023/05/18 10:39:02;;;;;;;;;;;;;;;15.93;61.20;98500.25;5079016;28;20359;-73
2023/05/18 10:41:30;;;;;;;;;;;;;;;15.94;61.93;98507.22;5079811;28;19951;-72
2023/05/18 10:44:02;;;;;;;;;;;;;;;15.79;62.04;98501.16;5077970;28;19976;-72
2023/05/18 10:46:29;;;;;;;;;;;;;;;15.78;63.53;98505.75;5075074;28;19925;-73
2023/05/18 10:48:57;;;;;;;;;;;;;;;16.09;63.45;98498.22;5077585;28;19971;-72
2023/05/18 10:51:24;;;;;;;;;;;;;;;16.18;62.64;98502.66;5083211;28;19952;-72
2023/05/18 10:53:52;;;;;;;;;;;;;;;16.26;63.70;98492.38;5082381;28;19925;-72
2023/05/18 10:56:19;;;;;;;;;;;;;;;16.22;62.91;98483.28;5079902;28;19948;-73
2023/05/18 10:58:46;;;;;;;;;;;;;;;16.11;63.61;98486.06;5079410;28;19924;-72
2023/05/18 11:01:13;;;;;;;;;;;;;;;16.09;63.47;98504.38;5076244;28;19921;-71
2023/05/18 11:03:40;;;;;;;;;;;;;;;16.15;63.36;98503.25;5082674;28;19924;-73
2023/05/18 11:06:09;;;;;;;;;;;;;;;16.30;63.46;98493.41;5080408;28;19935;-73
2023/05/18 11:08:42;;;;;;;;;;;;;;;16.31;63.44;98497.72;5080046;28;19951;-72
2023/05/18 11:11:10;;;;;;;;;;;;;;;16.27;63.85;98483.22;5083328;28;19924;-71
2023/05/18 11:13:42;;;;;;;;;;;;;;;16.13;64.72;98489.25;5083688;28;19921;-71
2023/05/18 11:16:09;;;;;;;;;;;;;;;16.23;65.13;98480.28;5080238;28;19924;-72
2023/05/18 11:18:37;;;;;;;;;;;;;;;16.26;65.53;98479.69;5079203;28;19928;-72
2023/05/18 11:21:04;;;;;;;;;;;;;;;16.31;66.31;98479.63;5081430;28;19967;-72
2023/05/18 11:23:31;;;;;;;;;;;;;;;16.42;65.28;98478.47;5082890;28;19964;-72
2023/05/18 11:26:01;;;;;;;;;;;;;;;16.29;64.43;98481.81;5080901;28;19928;-72
2023/05/18 11:28:29;;;;;;;;;;;;;;;16.32;64.74;98483.13;5079080;28;19925;-72
2023/05/18 11:30:55;;;;;;;;;;;;;;;16.46;64.80;98481.38;5072445;28;20003;-72
2023/05/18 11:33:28;;;;;;;;;;;;;;;16.50;64.98;98488.59;5082706;28;19931;-72
2023/05/18 11:36:00;;;;;;;;;;;;;;;16.29;64.61;98486.41;5080468;28;19924;-72
2023/05/18 11:38:46;;;;;;;;;;;;;;;16.43;63.63;98481.97;5078770;28;19963;-72
2023/05/18 11:41:26;;;;;;;;;;;;;;;16.65;63.52;98484.94;5070331;28;19921;-73
2023/05/18 11:44:05;;;;;;;;;;;;;;;16.77;63.96;98476.47;5077123;28;19935;-73
2023/05/18 11:46:31;;;;;;;;;;;;;;;16.70;63.80;98488.41;5078555;28;19947;-72
2023/05/18 11:49:02;;;;;;;;;;;;;;;16.57;63.16;98480.19;5078816;28;19925;-72
2023/05/18 11:51:30;;;;;;;;;;;;;;;16.53;63.51;98481.81;5081945;28;19932;-72
2023/05/18 11:53:57;;;;;;;;;;;;;;;16.48;64.64;98479.19;5080268;28;19921;-72
2023/05/18 11:56:24;;;;;;;;;;;;;;;16.43;64.54;98481.97;5078056;28;19932;-72
2023/05/18 11:59:05;;;;;;;;;;;;;;;16.51;64.02;98468.66;5078979;28;19935;-71
2023/05/18 12:01:33;;;;;;;;;;;;;;;16.47;64.54;98477.59;5075386;28;19920;-71
2023/05/18 12:04:00;;;;;;;;;;;;;;;16.48;64.45;98479.19;5080307;28;19924;-72
2023/05/18 12:06:27;;;;;;;;;;;;;;;16.56;63.38;98484.78;5078655;28;19979;-72
2023/05/18 12:08:54;;;;;;;;;;;;;;;16.46;63.24;98490.28;5079264;28;19967;-72
2023/05/18 12:11:21;;;;;;;;;;;;;;;16.39;63.28;98480.91;5081316;28;20007;-71
2023/05/18 12:13:50;;;;;;;;;;;;;;;16.53;63.06;98482.63;5079083;28;19936;-72
2023/05/18 12:16:17;;;;;;;;;;;;;;;16.61;62.66;98481.25;5077624;28;20011;-71
2023/05/18 12:18:49;;;;;;;;;;;;;;;16.61;62.77;98492.03;5077539;28;19952;-71
2023/05/18 12:21:20;;;;;;;;;;;;;;;16.60;61.50;98477.72;5073509;28;19975;-71
2023/05/18 12:23:47;;;;;;;;;;;;;;;16.51;61.49;98481.31;5079176;28;19948;-71
2023/05/18 12:26:13;;;;;;;;;;;;;;;16.47;62.15;98473.00;5077509;28;19968;-71
2023/05/18 12:28:40;;;;;;;;;;;;;;;16.53;61.37;98479.13;5077595;28;19988;-71
2023/05/18 12:31:07;;;;;;;;;;;;;;;16.55;61.08;98460.81;5070935;28;19935;-72
2023/05/18 12:33:34;;;;;;;;;;;;;;;16.88;60.38;98467.13;5079482;28;19967;-72
2023/05/18 12:36:01;;;;;;;;;;;;;;;17.05;59.26;98462.84;5078690;28;19935;-72
2023/05/18 12:38:28;;;;;;;;;;;;;;;17.05;59.76;98452.03;5075978;28;19921;-72
2023/05/18 12:40:56;;;;;;;;;;;;;;;16.77;60.60;98466.47;5078525;28;19925;-71
2023/05/18 12:43:25;;;;;;;;;;;;;;;16.77;61.34;98461.09;5080383;28;19924;-71
2023/05/18 12:45:51;;;;;;;;;;;;;;;16.71;60.37;98471.09;5080207;28;19940;-71